sensor_id;sensor_type;location;lat;lon;timestamp;pressure;altitude;pressure_sealevel;temperature;humidity
49342;BME280;35210;41.606;-87.602;2023-07-02T00:00:42;98829.28;;;29.62;76.62
49342;BME280;35210;41.606;-87.602;2023-07-02T00:03:10;98821.38;;;29.60;77.10
49342;BME280;35210;41.606;-87.602;2023-07-02T00:05:38;98812.38;;;29.60;77.86
49342;BME280;35210;41.606;-87.602;2023-07-02T00:08:07;98809.94;;;29.58;77.16
49342;BME280;35210;41.606;-87.602;2023-07-02T00:10:35;98812.09;;;29.56;77.30
49342;BME280;35210;41.606;-87.602;2023-07-02T00:13:03;98812.91;;;29.57;77.25
49342;BME280;35210;41.606;-87.602;2023-07-02T00:15:31;98807.97;;;29.54;77.57
49342;BME280;35210;41.606;-87.602;2023-07-02T00:18:01;98806.91;;;29.55;77.98
49342;BME280;35210;41.606;-87.602;2023-07-02T00:20:29;98803.34;;;29.54;77.75
49342;BME280;35210;41.606;-87.602;2023-07-02T00:23:01;98810.13;;;29.52;78.26
49342;BME280;35210;41.606;-87.602;2023-07-02T00:25:29;98818.53;;;29.50;78.63
49342;BME280;35210;41.606;-87.602;2023-07-02T00:27:57;98830.00;;;29.52;78.91
49342;BME280;35210;41.606;-87.602;2023-07-02T00:30:25;98845.50;;;29.52;78.82
49342;BME280;35210;41.606;-87.602;2023-07-02T00:32:53;98835.69;;;29.51;78.88
49342;BME280;35210;41.606;-87.602;2023-07-02T00:35:23;98841.69;;;29.53;78.74
49342;BME280;35210;41.606;-87.602;2023-07-02T00:37:54;98835.94;;;29.49;78.73
49342;BME280;35210;41.606;-87.602;2023-07-02T00:40:22;98834.56;;;29.47;79.15
49342;BME280;35210;41.606;-87.602;2023-07-02T00:42:50;98829.16;;;29.52;78.88
49342;BME280;35210;41.606;-87.602;2023-07-02T00:45:18;98826.97;;;29.49;78.83
49342;BME280;35210;41.606;-87.602;2023-07-02T00:47:46;98825.31;;;29.48;78.96
49342;BME280;35210;41.606;-87.602;2023-07-02T00:50:14;98825.31;;;29.48;79.14
49342;BME280;35210;41.606;-87.602;2023-07-02T00:52:44;98830.75;;;29.48;79.71
49342;BME280;35210;41.606;-87.602;2023-07-02T00:55:12;98824.75;;;29.46;79.85
49342;BME280;35210;41.606;-87.602;2023-07-02T00:57:40;98818.75;;;29.43;79.78
49342;BME280;35210;41.606;-87.602;2023-07-02T01:00:13;98811.16;;;29.46;80.04
49342;BME280;35210;41.606;-87.602;2023-07-02T01:02:41;98807.03;;;29.43;80.03
49342;BME280;35210;41.606;-87.602;2023-07-02T01:05:14;98807.28;;;29.41;80.41
49342;BME280;35210;41.606;-87.602;2023-07-02T01:07:44;98808.84;;;29.37;80.82
49342;BME280;35210;41.606;-87.602;2023-07-02T01:10:12;98813.47;;;29.37;81.01
49342;BME280;35210;41.606;-87.602;2023-07-02T01:12:41;98807.22;;;29.36;81.32
49342;BME280;35210;41.606;-87.602;2023-07-02T01:15:09;98803.91;;;29.34;81.35
49342;BME280;35210;41.606;-87.602;2023-07-02T01:17:38;98800.88;;;29.31;81.25
49342;BME280;35210;41.606;-87.602;2023-07-02T01:20:10;98815.56;;;29.30;81.51
49342;BME280;35210;41.606;-87.602;2023-07-02T01:22:40;98815.00;;;29.28;81.76
49342;BME280;35210;41.606;-87.602;2023-07-02T01:25:08;98805.44;;;29.25;81.47
49342;BME280;35210;41.606;-87.602;2023-07-02T01:27:36;98818.47;;;29.23;81.61
49342;BME280;35210;41.606;-87.602;2023-07-02T01:30:07;98815.44;;;29.20;81.77
49342;BME280;35210;41.606;-87.602;2023-07-02T01:32:36;98806.53;;;29.24;81.51
49342;BME280;35210;41.606;-87.602;2023-07-02T01:35:05;98818.41;;;29.18;81.75
49342;BME280;35210;41.606;-87.602;2023-07-02T01:37:35;98820.81;;;29.15;82.17
49342;BME280;35210;41.606;-87.602;2023-07-02T01:40:05;98815.06;;;29.11;82.35
49342;BME280;35210;41.606;-87.602;2023-07-02T01:42:34;98812.59;;;29.09;82.23
49342;BME280;35210;41.606;-87.602;2023-07-02T01:45:06;98814.75;;;29.07;82.21
49342;BME280;35210;41.606;-87.602;2023-07-02T01:47:34;98823.41;;;29.04;82.11
49342;BME280;35210;41.606;-87.602;2023-07-02T01:50:04;98830.72;;;29.04;81.80
49342;BME280;35210;41.606;-87.602;2023-07-02T01:52:34;98826.13;;;29.04;81.33
49342;BME280;35210;41.606;-87.602;2023-07-02T01:55:02;98825.31;;;29.04;81.27
49342;BME280;35210;41.606;-87.602;2023-07-02T01:57:32;98833.38;;;28.99;81.12
49342;BME280;35210;41.606;-87.602;2023-07-02T02:00:00;98831.47;;;28.94;81.16
49342;BME280;35210;41.606;-87.602;2023-07-02T02:02:29;98829.75;;;28.88;81.49
49342;BME280;35210;41.606;-87.602;2023-07-02T02:04:57;98830.00;;;28.87;81.42
49342;BME280;35210;41.606;-87.602;2023-07-02T02:07:26;98824.22;;;28.83;81.50
49342;BME280;35210;41.606;-87.602;2023-07-02T02:09:56;98832.97;;;28.85;81.45
49342;BME280;35210;41.606;-87.602;2023-07-02T02:12:24;98835.09;;;28.83;81.63
49342;BME280;35210;41.606;-87.602;2023-07-02T02:14:54;98837.72;;;28.78;81.90
49342;BME280;35210;41.606;-87.602;2023-07-02T02:17:23;98831.97;;;28.74;81.95
49342;BME280;35210;41.606;-87.602;2023-07-02T02:19:51;98837.06;;;28.71;82.30
49342;BME280;35210;41.606;-87.602;2023-07-02T02:22:19;98841.69;;;28.70;82.12
49342;BME280;35210;41.606;-87.602;2023-07-02T02:24:48;98841.38;;;28.67;82.12
49342;BME280;35210;41.606;-87.602;2023-07-02T02:27:18;98829.66;;;28.66;82.46
49342;BME280;35210;41.606;-87.602;2023-07-02T02:29:46;98831.56;;;28.66;82.53
49342;BME280;35210;41.606;-87.602;2023-07-02T02:32:14;98830.16;;;28.63;82.60
49342;BME280;35210;41.606;-87.602;2023-07-02T02:34:45;98835.84;;;28.62;82.65
49342;BME280;35210;41.606;-87.602;2023-07-02T02:37:13;98824.66;;;28.58;82.80
49342;BME280;35210;41.606;-87.602;2023-07-02T02:39:41;98824.34;;;28.55;83.28
49342;BME280;35210;41.606;-87.602;2023-07-02T02:42:10;98827.31;;;28.53;83.74
49342;BME280;35210;41.606;-87.602;2023-07-02T02:44:40;98815.88;;;28.51;84.12
49342;BME280;35210;41.606;-87.602;2023-07-02T02:47:09;98805.97;;;28.62;83.98
49342;BME280;35210;41.606;-87.602;2023-07-02T02:49:38;98803.66;;;28.70;83.89
49342;BME280;35210;41.606;-87.602;2023-07-02T02:52:07;98806.78;;;28.62;84.92
49342;BME280;35210;41.606;-87.602;2023-07-02T02:54:35;98814.88;;;28.57;85.35
49342;BME280;35210;41.606;-87.602;2023-07-02T02:57:04;98821.88;;;28.53;85.78
49342;BME280;35210;41.606;-87.602;2023-07-02T02:59:32;98821.97;;;28.41;86.41
49342;BME280;35210;41.606;-87.602;2023-07-02T03:02:01;98833.97;;;28.45;86.43
49342;BME280;35210;41.606;-87.602;2023-07-02T03:04:30;98827.06;;;28.38;86.38
49342;BME280;35210;41.606;-87.602;2023-07-02T03:06:58;98820.50;;;28.34;86.54
49342;BME280;35210;41.606;-87.602;2023-07-02T03:09:27;98819.00;;;28.26;86.43
49342;BME280;35210;41.606;-87.602;2023-07-02T03:11:55;98815.88;;;28.18;86.91
49342;BME280;35210;41.606;-87.602;2023-07-02T03:14:23;98829.69;;;28.16;86.30
49342;BME280;35210;41.606;-87.602;2023-07-02T03:16:52;98823.44;;;28.16;84.61
49342;BME280;35210;41.606;-87.602;2023-07-02T03:19:22;98821.16;;;28.07;85.12
49342;BME280;35210;41.606;-87.602;2023-07-02T03:21:50;98808.47;;;27.96;85.20
49342;BME280;35210;41.606;-87.602;2023-07-02T03:24:18;98808.47;;;27.96;85.38
49342;BME280;35210;41.606;-87.602;2023-07-02T03:26:47;98796.47;;;27.92;85.44
49342;BME280;35210;41.606;-87.602;2023-07-02T03:29:15;98801.47;;;27.84;86.05
49342;BME280;35210;41.606;-87.602;2023-07-02T03:31:45;98795.28;;;27.71;86.65
49342;BME280;35210;41.606;-87.602;2023-07-02T03:34:14;98780.81;;;27.66;86.72
49342;BME280;35210;41.606;-87.602;2023-07-02T03:36:43;98777.69;;;27.74;86.60
49342;BME280;35210;41.606;-87.602;2023-07-02T03:39:11;98775.22;;;27.72;86.75
49342;BME280;35210;41.606;-87.602;2023-07-02T03:41:39;98768.41;;;27.70;86.88
49342;BME280;35210;41.606;-87.602;2023-07-02T03:44:07;98761.81;;;27.66;87.10
49342;BME280;35210;41.606;-87.602;2023-07-02T03:46:35;98766.53;;;27.59;87.40
49342;BME280;35210;41.606;-87.602;2023-07-02T03:49:04;98769.41;;;27.52;88.12
49342;BME280;35210;41.606;-87.602;2023-07-02T03:51:32;98774.50;;;27.48;88.59
49342;BME280;35210;41.606;-87.602;2023-07-02T03:54:02;98760.44;;;27.52;88.30
49342;BME280;35210;41.606;-87.602;2023-07-02T03:56:30;98759.97;;;27.55;88.64
49342;BME280;35210;41.606;-87.602;2023-07-02T03:58:58;98762.66;;;27.55;89.35
49342;BME280;35210;41.606;-87.602;2023-07-02T04:01:26;98754.97;;;27.46;89.89
49342;BME280;35210;41.606;-87.602;2023-07-02T04:03:54;98746.97;;;27.40;90.48
49342;BME280;35210;41.606;-87.602;2023-07-02T04:06:23;98749.69;;;27.40;90.16
49342;BME280;35210;41.606;-87.602;2023-07-02T04:08:51;98752.16;;;27.41;90.31
49342;BME280;35210;41.606;-87.602;2023-07-02T04:11:20;98752.66;;;27.38;90.99
49342;BME280;35210;41.606;-87.602;2023-07-02T04:13:49;98755.59;;;27.37;91.38
49342;BME280;35210;41.606;-87.602;2023-07-02T04:16:18;98751.47;;;27.34;91.74
49342;BME280;35210;41.606;-87.602;2023-07-02T04:18:46;98740.97;;;27.38;91.52
49342;BME280;35210;41.606;-87.602;2023-07-02T04:21:14;98740.63;;;27.34;91.77
49342;BME280;35210;41.606;-87.602;2023-07-02T04:23:42;98740.63;;;27.34;91.60
49342;BME280;35210;41.606;-87.602;2023-07-02T04:26:10;98741.47;;;27.35;91.74
49342;BME280;35210;41.606;-87.602;2023-07-02T04:28:40;98729.78;;;27.34;92.28
49342;BME280;35210;41.606;-87.602;2023-07-02T04:31:08;98723.78;;;27.32;92.24
49342;BME280;35210;41.606;-87.602;2023-07-02T04:33:36;98721.09;;;27.32;92.43
49342;BME280;35210;41.606;-87.602;2023-07-02T04:36:06;98724.28;;;27.29;92.76
49342;BME280;35210;41.606;-87.602;2023-07-02T04:38:34;98725.34;;;27.28;92.73
49342;BME280;35210;41.606;-87.602;2023-07-02T04:41:02;98729.38;;;27.26;93.12
49342;BME280;35210;41.606;-87.602;2023-07-02T04:43:31;98725.84;;;27.25;93.61
49342;BME280;35210;41.606;-87.602;2023-07-02T04:46:01;98725.34;;;27.28;93.11
49342;BME280;35210;41.606;-87.602;2023-07-02T04:48:32;98723.69;;;27.27;93.37
49342;BME280;35210;41.606;-87.602;2023-07-02T04:51:00;98724.19;;;27.24;93.24
49342;BME280;35210;41.606;-87.602;2023-07-02T04:53:28;98725.25;;;27.23;93.70
49342;BME280;35210;41.606;-87.602;2023-07-02T04:55:56;98726.31;;;27.22;93.60
49342;BME280;35210;41.606;-87.602;2023-07-02T04:58:24;98724.66;;;27.21;93.88
49342;BME280;35210;41.606;-87.602;2023-07-02T05:00:52;98733.88;;;27.20;93.86
49342;BME280;35210;41.606;-87.602;2023-07-02T05:03:22;98724.09;;;27.19;93.71
49342;BME280;35210;41.606;-87.602;2023-07-02T05:05:50;98736.81;;;27.19;93.96
49342;BME280;35210;41.606;-87.602;2023-07-02T05:08:18;98727.28;;;27.16;93.89
49342;BME280;35210;41.606;-87.602;2023-07-02T05:10:46;98728.94;;;27.17;93.92
49342;BME280;35210;41.606;-87.602;2023-07-02T05:13:14;98727.78;;;27.13;93.90
49342;BME280;35210;41.606;-87.602;2023-07-02T05:15:42;98727.44;;;27.09;94.17
49342;BME280;35210;41.606;-87.602;2023-07-02T05:18:10;98728.50;;;27.08;94.17
49342;BME280;35210;41.606;-87.602;2023-07-02T05:20:40;98740.63;;;27.06;94.53
49342;BME280;35210;41.606;-87.602;2023-07-02T05:23:09;98746.09;;;26.82;96.82
49342;BME280;35210;41.606;-87.602;2023-07-02T05:25:37;98748.84;;;26.71;97.18
49342;BME280;35210;41.606;-87.602;2023-07-02T05:28:05;98743.25;;;26.49;98.83
49342;BME280;35210;41.606;-87.602;2023-07-02T05:30:33;98748.41;;;26.50;98.75
49342;BME280;35210;41.606;-87.602;2023-07-02T05:33:01;98754.53;;;26.46;99.58
49342;BME280;35210;41.606;-87.602;2023-07-02T05:35:29;98747.47;;;26.22;100.00
49342;BME280;35210;41.606;-87.602;2023-07-02T05:37:59;98753.34;;;26.18;100.00
49342;BME280;35210;41.606;-87.602;2023-07-02T05:40:28;98745.34;;;26.24;100.00
49342;BME280;35210;41.606;-87.602;2023-07-02T05:42:57;98752.03;;;26.21;100.00
49342;BME280;35210;41.606;-87.602;2023-07-02T05:45:25;98747.69;;;26.08;100.00
49342;BME280;35210;41.606;-87.602;2023-07-02T05:47:55;98747.00;;;26.13;100.00
49342;BME280;35210;41.606;-87.602;2023-07-02T05:50:23;98750.16;;;26.10;100.00
49342;BME280;35210;41.606;-87.602;2023-07-02T05:52:51;98740.75;;;25.89;100.00
49342;BME280;35210;41.606;-87.602;2023-07-02T05:55:21;98743.00;;;25.92;100.00
49342;BME280;35210;41.606;-87.602;2023-07-02T05:57:49;98745.94;;;25.91;100.00
49342;BME280;35210;41.606;-87.602;2023-07-02T06:00:18;98747.69;;;25.85;100.00
49342;BME280;35210;41.606;-87.602;2023-07-02T06:02:47;98742.63;;;25.77;100.00
49342;BME280;35210;41.606;-87.602;2023-07-02T06:05:15;98746.63;;;25.74;100.00
49342;BME280;35210;41.606;-87.602;2023-07-02T06:07:43;98746.63;;;25.74;100.00
49342;BME280;35210;41.606;-87.602;2023-07-02T06:10:11;98740.88;;;25.52;100.00
49342;BME280;35210;41.606;-87.602;2023-07-02T06:12:41;98737.03;;;25.60;100.00
49342;BME280;35210;41.606;-87.602;2023-07-02T06:15:10;98734.09;;;25.62;100.00
49342;BME280;35210;41.606;-87.602;2023-07-02T06:17:38;98733.28;;;25.61;100.00
49342;BME280;35210;41.606;-87.602;2023-07-02T06:20:07;98714.69;;;25.53;100.00
49342;BME280;35210;41.606;-87.602;2023-07-02T06:22:36;98708.44;;;25.52;100.00
49342;BME280;35210;41.606;-87.602;2023-07-02T06:25:04;98711.97;;;25.53;100.00
49342;BME280;35210;41.606;-87.602;2023-07-02T06:27:33;98702.59;;;25.55;100.00
49342;BME280;35210;41.606;-87.602;2023-07-02T06:30:03;98692.34;;;25.58;100.00
49342;BME280;35210;41.606;-87.602;2023-07-02T06:32:32;98692.94;;;25.60;100.00
49342;BME280;35210;41.606;-87.602;2023-07-02T06:35:01;98694.13;;;25.64;100.00
49342;BME280;35210;41.606;-87.602;2023-07-02T06:37:29;98695.56;;;25.66;100.00
49342;BME280;35210;41.606;-87.602;2023-07-02T06:39:57;98682.88;;;25.67;100.00
49342;BME280;35210;41.606;-87.602;2023-07-02T06:42:25;98682.06;;;25.66;100.00
49342;BME280;35210;41.606;-87.602;2023-07-02T06:44:54;98668.53;;;25.66;100.00
49342;BME280;35210;41.606;-87.602;2023-07-02T06:47:23;98669.13;;;25.68;100.00
49342;BME280;35210;41.606;-87.602;2023-07-02T06:49:52;98665.38;;;25.69;100.00
49342;BME280;35210;41.606;-87.602;2023-07-02T06:52:20;98666.44;;;25.68;100.00
49342;BME280;35210;41.606;-87.602;2023-07-02T06:54:48;98655.16;;;25.71;100.00
49342;BME280;35210;41.606;-87.602;2023-07-02T06:57:16;98634.22;;;25.67;100.00
49342;BME280;35210;41.606;-87.602;2023-07-02T06:59:45;98628.22;;;25.65;100.00
49342;BME280;35210;41.606;-87.602;2023-07-02T07:02:13;98631.13;;;25.63;100.00
49342;BME280;35210;41.606;-87.602;2023-07-02T07:04:43;98636.75;;;25.62;100.00
49342;BME280;35210;41.606;-87.602;2023-07-02T07:07:11;98640.75;;;25.59;100.00
49342;BME280;35210;41.606;-87.602;2023-07-02T07:09:39;98635.94;;;25.61;100.00
49342;BME280;35210;41.606;-87.602;2023-07-02T07:12:08;98620.53;;;25.62;100.00
49342;BME280;35210;41.606;-87.602;2023-07-02T07:14:36;98602.44;;;25.62;100.00
49342;BME280;35210;41.606;-87.602;2023-07-02T07:17:04;98599.38;;;25.59;100.00
49342;BME280;35210;41.606;-87.602;2023-07-02T07:19:32;98605.03;;;25.57;100.00
49342;BME280;35210;41.606;-87.602;2023-07-02T07:22:03;98598.81;;;25.57;100.00
49342;BME280;35210;41.606;-87.602;2023-07-02T07:24:31;98592.91;;;25.60;100.00
49342;BME280;35210;41.606;-87.602;2023-07-02T07:26:59;98599.38;;;25.59;100.00
49342;BME280;35210;41.606;-87.602;2023-07-02T07:29:27;98611.84;;;25.60;100.00
49342;BME280;35210;41.606;-87.602;2023-07-02T07:31:55;98614.78;;;25.58;100.00
49342;BME280;35210;41.606;-87.602;2023-07-02T07:34:23;98619.84;;;25.54;100.00
49342;BME280;35210;41.606;-87.602;2023-07-02T07:36:52;98618.06;;;25.48;100.00
49342;BME280;35210;41.606;-87.602;2023-07-02T07:39:21;98612.41;;;25.38;100.00
49342;BME280;35210;41.606;-87.602;2023-07-02T07:41:49;98617.47;;;25.35;100.00
49342;BME280;35210;41.606;-87.602;2023-07-02T07:44:18;98614.38;;;25.08;100.00
49342;BME280;35210;41.606;-87.602;2023-07-02T07:46:46;98626.25;;;25.07;100.00
49342;BME280;35210;41.606;-87.602;2023-07-02T07:49:14;98625.31;;;25.13;100.00
49342;BME280;35210;41.606;-87.602;2023-07-02T07:51:42;98622.25;;;25.09;100.00
49342;BME280;35210;41.606;-87.602;2023-07-02T07:54:10;98621.56;;;25.14;100.00
49342;BME280;35210;41.606;-87.602;2023-07-02T07:56:40;98626.84;;;24.90;100.00
49342;BME280;35210;41.606;-87.602;2023-07-02T07:59:09;98624.28;;;24.96;100.00
49342;BME280;35210;41.606;-87.602;2023-07-02T08:01:37;98628.22;;;24.81;100.00
49342;BME280;35210;41.606;-87.602;2023-07-02T08:04:05;98628.22;;;24.81;100.00
49342;BME280;35210;41.606;-87.602;2023-07-02T08:06:33;98630.38;;;24.91;100.00
49342;BME280;35210;41.606;-87.602;2023-07-02T08:09:02;98626.41;;;24.94;100.00
49342;BME280;35210;41.606;-87.602;2023-07-02T08:11:30;98627.00;;;24.96;100.00
49342;BME280;35210;41.606;-87.602;2023-07-02T08:14:00;98616.19;;;24.96;100.00
49342;BME280;35210;41.606;-87.602;2023-07-02T08:16:28;98611.66;;;24.96;100.00
49342;BME280;35210;41.606;-87.602;2023-07-02T08:18:56;98609.31;;;25.00;100.00
49342;BME280;35210;41.606;-87.602;2023-07-02T08:21:25;98599.91;;;25.02;100.00
49342;BME280;35210;41.606;-87.602;2023-07-02T08:23:53;98600.16;;;25.01;100.00
49342;BME280;35210;41.606;-87.602;2023-07-02T08:26:21;98598.78;;;25.10;100.00
49342;BME280;35210;41.606;-87.602;2023-07-02T08:28:49;98600.66;;;25.09;100.00
49342;BME280;35210;41.606;-87.602;2023-07-02T08:31:18;98604.16;;;25.10;100.00
49342;BME280;35210;41.606;-87.602;2023-07-02T08:33:46;98592.78;;;25.08;100.00
49342;BME280;35210;41.606;-87.602;2023-07-02T08:36:14;98590.44;;;25.11;100.00
49342;BME280;35210;41.606;-87.602;2023-07-02T08:38:43;98581.63;;;25.16;100.00
49342;BME280;35210;41.606;-87.602;2023-07-02T08:41:11;98580.56;;;25.17;100.00
49342;BME280;35210;41.606;-87.602;2023-07-02T08:43:40;98574.59;;;25.15;100.00
49342;BME280;35210;41.606;-87.602;2023-07-02T08:46:09;98575.16;;;25.17;100.00
49342;BME280;35210;41.606;-87.602;2023-07-02T08:48:39;98577.88;;;25.17;100.00
49342;BME280;35210;41.606;-87.602;2023-07-02T08:51:08;98572.94;;;25.14;100.00
49342;BME280;35210;41.606;-87.602;2023-07-02T08:53:36;98578.09;;;25.15;100.00
49342;BME280;35210;41.606;-87.602;2023-07-02T08:56:05;98572.94;;;25.14;100.00
49342;BME280;35210;41.606;-87.602;2023-07-02T08:58:33;98570.81;;;25.16;100.00
49342;BME280;35210;41.606;-87.602;2023-07-02T09:01:05;98568.72;;;25.18;100.00
49342;BME280;35210;41.606;-87.602;2023-07-02T09:03:34;98563.78;;;25.15;100.00
49342;BME280;35210;41.606;-87.602;2023-07-02T09:06:05;98570.69;;;25.11;100.00
49342;BME280;35210;41.606;-87.602;2023-07-02T09:08:33;98571.53;;;25.11;100.00
49342;BME280;35210;41.606;-87.602;2023-07-02T09:11:08;98577.97;;;25.10;100.00
49342;BME280;35210;41.606;-87.602;2023-07-02T09:13:46;98585.25;;;25.10;100.00
49342;BME280;35210;41.606;-87.602;2023-07-02T09:16:22;98588.78;;;25.10;100.00
49342;BME280;35210;41.606;-87.602;2023-07-02T09:19:01;98593.13;;;25.11;100.00
49342;BME280;35210;41.606;-87.602;2023-07-02T09:21:42;98600.41;;;25.11;100.00
49342;BME280;35210;41.606;-87.602;2023-07-02T09:24:15;98592.31;;;25.11;100.00
49342;BME280;35210;41.606;-87.602;2023-07-02T09:26:44;98593.72;;;25.13;100.00
49342;BME280;35210;41.606;-87.602;2023-07-02T09:29:13;98590.78;;;25.15;100.00
49342;BME280;35210;41.606;-87.602;2023-07-02T09:31:45;98597.47;;;25.12;100.00
49342;BME280;35210;41.606;-87.602;2023-07-02T09:34:14;98603.94;;;25.11;100.00
49342;BME280;35210;41.606;-87.602;2023-07-02T09:36:44;98610.41;;;25.10;100.00
49342;BME280;35210;41.606;-87.602;2023-07-02T09:39:13;98622.13;;;25.04;100.00
49342;BME280;35210;41.606;-87.602;2023-07-02T09:41:42;98618.25;;;24.82;100.00
49342;BME280;35210;41.606;-87.602;2023-07-02T09:44:12;98631.66;;;24.58;100.00
49342;BME280;35210;41.606;-87.602;2023-07-02T09:46:43;98632.47;;;24.59;100.00
49342;BME280;35210;41.606;-87.602;2023-07-02T09:49:15;98638.34;;;24.56;100.00
49342;BME280;35210;41.606;-87.602;2023-07-02T09:51:46;98629.09;;;24.34;100.00
49342;BME280;35210;41.606;-87.602;2023-07-02T09:54:14;98624.75;;;24.33;100.00
49342;BME280;35210;41.606;-87.602;2023-07-02T09:56:45;98625.78;;;24.32;100.00
49342;BME280;35210;41.606;-87.602;2023-07-02T09:59:14;98623.09;;;24.32;100.00
49342;BME280;35210;41.606;-87.602;2023-07-02T10:01:42;98625.19;;;24.30;100.00
49342;BME280;35210;41.606;-87.602;2023-07-02T10:04:13;98618.97;;;24.29;100.00
49342;BME280;35210;41.606;-87.602;2023-07-02T10:06:49;98604.81;;;24.34;100.00
49342;BME280;35210;41.606;-87.602;2023-07-02T10:09:18;98609.47;;;24.27;100.00
49342;BME280;35210;41.606;-87.602;2023-07-02T10:11:46;98619.63;;;24.24;100.00
49342;BME280;35210;41.606;-87.602;2023-07-02T10:14:14;98619.84;;;24.23;100.00
49342;BME280;35210;41.606;-87.602;2023-07-02T10:16:50;98630.25;;;24.19;100.00
49342;BME280;35210;41.606;-87.602;2023-07-02T10:19:18;98630.25;;;24.19;100.00
49342;BME280;35210;41.606;-87.602;2023-07-02T10:22:00;98622.94;;;24.27;100.00
49342;BME280;35210;41.606;-87.602;2023-07-02T10:24:28;98627.66;;;24.31;100.00
49342;BME280;35210;41.606;-87.602;2023-07-02T10:26:57;98631.78;;;24.34;100.00
49342;BME280;35210;41.606;-87.602;2023-07-02T10:29:26;98626.84;;;24.31;100.00
49342;BME280;35210;41.606;-87.602;2023-07-02T10:31:55;98624.75;;;24.33;100.00
49342;BME280;35210;41.606;-87.602;2023-07-02T10:34:31;98621.00;;;24.34;100.00
49342;BME280;35210;41.606;-87.602;2023-07-02T10:37:03;98623.09;;;24.32;100.00
49342;BME280;35210;41.606;-87.602;2023-07-02T10:39:38;98610.50;;;24.26;100.00
49342;BME280;35210;41.606;-87.602;2023-07-02T10:42:09;98624.41;;;24.22;100.00
49342;BME280;35210;41.606;-87.602;2023-07-02T10:44:47;98611.09;;;24.28;100.00
49342;BME280;35210;41.606;-87.602;2023-07-02T10:47:15;98615.00;;;24.32;100.00
49342;BME280;35210;41.606;-87.602;2023-07-02T10:49:44;98609.13;;;24.16;100.00
49342;BME280;35210;41.606;-87.602;2023-07-02T10:52:14;98605.38;;;24.17;100.00
49342;BME280;35210;41.606;-87.602;2023-07-02T10:54:43;98619.69;;;24.00;100.00
49342;BME280;35210;41.606;-87.602;2023-07-02T10:57:14;98626.28;;;24.04;100.00
49342;BME280;35210;41.606;-87.602;2023-07-02T10:59:42;98625.63;;;24.08;100.00
49342;BME280;35210;41.606;-87.602;2023-07-02T11:02:10;98624.34;;;24.11;100.00
49342;BME280;35210;41.606;-87.602;2023-07-02T11:04:39;98618.28;;;24.15;100.00
49342;BME280;35210;41.606;-87.602;2023-07-02T11:07:07;98624.88;;;24.19;100.00
49342;BME280;35210;41.606;-87.602;2023-07-02T11:09:36;98626.06;;;24.23;100.00
49342;BME280;35210;41.606;-87.602;2023-07-02T11:12:06;98642.41;;;24.10;100.00
49342;BME280;35210;41.606;-87.602;2023-07-02T11:14:35;98646.34;;;23.89;100.00
49342;BME280;35210;41.606;-87.602;2023-07-02T11:17:06;98643.41;;;23.91;100.00
49342;BME280;35210;41.606;-87.602;2023-07-02T11:19:36;98641.25;;;24.00;100.00
49342;BME280;35210;41.606;-87.602;2023-07-02T11:22:04;98644.78;;;24.00;100.00
49342;BME280;35210;41.606;-87.602;2023-07-02T11:24:34;98646.59;;;24.06;100.00
49342;BME280;35210;41.606;-87.602;2023-07-02T11:27:05;98652.03;;;24.00;100.00
49342;BME280;35210;41.606;-87.602;2023-07-02T11:29:36;98651.59;;;24.03;100.00
49342;BME280;35210;41.606;-87.602;2023-07-02T11:32:08;98661.69;;;23.89;100.00
49342;BME280;35210;41.606;-87.602;2023-07-02T11:34:37;98655.97;;;23.79;100.00
49342;BME280;35210;41.606;-87.602;2023-07-02T11:37:06;98648.06;;;23.84;100.00
49342;BME280;35210;41.606;-87.602;2023-07-02T11:39:34;98663.34;;;23.90;100.00
49342;BME280;35210;41.606;-87.602;2023-07-02T11:42:06;98665.09;;;24.03;100.00
49342;BME280;35210;41.606;-87.602;2023-07-02T11:44:34;98660.72;;;23.83;100.00
49342;BME280;35210;41.606;-87.602;2023-07-02T11:47:02;98656.38;;;23.82;100.00
49342;BME280;35210;41.606;-87.602;2023-07-02T11:49:30;98646.56;;;23.88;100.00
49342;BME280;35210;41.606;-87.602;2023-07-02T11:51:58;98647.59;;;23.87;100.00
49342;BME280;35210;41.606;-87.602;2023-07-02T11:54:27;98653.16;;;23.92;100.00
49342;BME280;35210;41.606;-87.602;2023-07-02T11:56:57;98656.06;;;23.90;100.00
49342;BME280;35210;41.606;-87.602;2023-07-02T11:59:27;98655.25;;;23.90;100.00
49342;BME280;35210;41.606;-87.602;2023-07-02T12:01:55;98654.22;;;23.91;100.00
49342;BME280;35210;41.606;-87.602;2023-07-02T12:04:24;98656.22;;;23.96;100.00
49342;BME280;35210;41.606;-87.602;2023-07-02T12:06:52;98658.88;;;24.02;100.00
49342;BME280;35210;41.606;-87.602;2023-07-02T12:09:20;98662.75;;;24.06;100.00
49342;BME280;35210;41.606;-87.602;2023-07-02T12:11:48;98654.59;;;24.13;100.00
49342;BME280;35210;41.606;-87.602;2023-07-02T12:14:16;98666.97;;;24.02;100.00
49342;BME280;35210;41.606;-87.602;2023-07-02T12:16:46;98669.34;;;23.92;100.00
49342;BME280;35210;41.606;-87.602;2023-07-02T12:19:14;98670.38;;;23.91;100.00
49342;BME280;35210;41.606;-87.602;2023-07-02T12:21:42;98671.44;;;23.90;100.00
49342;BME280;35210;41.606;-87.602;2023-07-02T12:24:10;98672.16;;;23.79;100.00
49342;BME280;35210;41.606;-87.602;2023-07-02T12:26:40;98680.56;;;23.71;100.00
49342;BME280;35210;41.606;-87.602;2023-07-02T12:29:08;98680.84;;;23.81;100.00
49342;BME280;35210;41.606;-87.602;2023-07-02T12:31:36;98674.72;;;23.74;100.00
49342;BME280;35210;41.606;-87.602;2023-07-02T12:34:06;98673.78;;;23.62;100.00
49342;BME280;35210;41.606;-87.602;2023-07-02T12:36:34;98676.88;;;23.65;100.00
49342;BME280;35210;41.606;-87.602;2023-07-02T12:39:02;98682.44;;;23.70;100.00
49342;BME280;35210;41.606;-87.602;2023-07-02T12:41:30;98673.38;;;23.83;100.00
49342;BME280;35210;41.606;-87.602;2023-07-02T12:43:58;98674.13;;;23.90;100.00